sensor_id;sensor_type;location;lat;lon;timestamp;P1;durP1;ratioP1;P2;durP2;ratioP2
8466;SDS011;4270;48.148;11.648;2023-09-08T00:00:40;11.70;;;8.20;;
8466;SDS011;4270;48.148;11.648;2023-09-08T00:03:05;12.23;;;8.60;;
8466;SDS011;4270;48.148;11.648;2023-09-08T00:05:31;12.50;;;8.00;;
8466;SDS011;4270;48.148;11.648;2023-09-08T00:07:56;9.90;;;8.03;;
8466;SDS011;4270;48.148;11.648;2023-09-08T00:10:21;13.17;;;7.57;;
8466;SDS011;4270;48.148;11.648;2023-09-08T00:12:47;12.80;;;7.87;;
8466;SDS011;4270;48.148;11.648;2023-09-08T00:15:12;9.73;;;6.93;;
8466;SDS011;4270;48.148;11.648;2023-09-08T00:17:37;12.00;;;8.00;;
8466;SDS011;4270;48.148;11.648;2023-09-08T00:20:03;10.80;;;7.63;;
8466;SDS011;4270;48.148;11.648;2023-09-08T00:22:33;13.30;;;7.90;;
8466;SDS011;4270;48.148;11.648;2023-09-08T00:24:58;13.73;;;9.00;;
8466;SDS011;4270;48.148;11.648;2023-09-08T00:27:24;13.93;;;8.20;;
8466;SDS011;4270;48.148;11.648;2023-09-08T00:29:49;9.90;;;7.50;;
8466;SDS011;4270;48.148;11.648;2023-09-08T00:32:14;11.90;;;8.13;;
8466;SDS011;4270;48.148;11.648;2023-09-08T00:34:40;9.87;;;7.77;;
8466;SDS011;4270;48.148;11.648;2023-09-08T00:37:05;15.13;;;8.63;;
8466;SDS011;4270;48.148;11.648;2023-09-08T00:39:34;13.60;;;8.90;;
8466;SDS011;4270;48.148;11.648;2023-09-08T00:41:59;12.90;;;8.50;;
8466;SDS011;4270;48.148;11.648;2023-09-08T00:44:24;12.60;;;8.67;;
8466;SDS011;4270;48.148;11.648;2023-09-08T00:46:49;13.43;;;9.73;;
8466;SDS011;4270;48.148;11.648;2023-09-08T00:49:15;11.83;;;7.87;;
8466;SDS011;4270;48.148;11.648;2023-09-08T00:51:40;10.70;;;8.23;;
8466;SDS011;4270;48.148;11.648;2023-09-08T00:54:05;10.67;;;8.17;;
8466;SDS011;4270;48.148;11.648;2023-09-08T00:56:31;16.07;;;8.70;;
8466;SDS011;4270;48.148;11.648;2023-09-08T00:58:56;11.47;;;8.20;;
8466;SDS011;4270;48.148;11.648;2023-09-08T01:01:21;9.57;;;8.10;;
8466;SDS011;4270;48.148;11.648;2023-09-08T01:03:47;10.87;;;7.97;;
8466;SDS011;4270;48.148;11.648;2023-09-08T01:06:12;14.20;;;8.77;;
8466;SDS011;4270;48.148;11.648;2023-09-08T01:08:37;14.37;;;9.50;;
8466;SDS011;4270;48.148;11.648;2023-09-08T01:11:03;11.20;;;8.13;;
8466;SDS011;4270;48.148;11.648;2023-09-08T01:13:28;12.33;;;7.87;;
8466;SDS011;4270;48.148;11.648;2023-09-08T01:15:53;13.77;;;8.60;;
8466;SDS011;4270;48.148;11.648;2023-09-08T01:18:18;11.87;;;8.47;;
8466;SDS011;4270;48.148;11.648;2023-09-08T01:23:26;17.40;;;10.17;;
8466;SDS011;4270;48.148;11.648;2023-09-08T01:26:02;14.60;;;9.77;;
8466;SDS011;4270;48.148;11.648;2023-09-08T01:28:29;15.50;;;8.30;;
8466;SDS011;4270;48.148;11.648;2023-09-08T01:30:54;13.63;;;8.20;;
8466;SDS011;4270;48.148;11.648;2023-09-08T01:33:20;11.83;;;8.40;;
8466;SDS011;4270;48.148;11.648;2023-09-08T01:35:46;16.63;;;8.07;;
8466;SDS011;4270;48.148;11.648;2023-09-08T01:38:12;12.37;;;8.60;;
8466;SDS011;4270;48.148;11.648;2023-09-08T01:40:37;12.87;;;7.80;;
8466;SDS011;4270;48.148;11.648;2023-09-08T01:43:03;11.50;;;8.10;;
8466;SDS011;4270;48.148;11.648;2023-09-08T01:45:28;13.47;;;8.97;;
8466;SDS011;4270;48.148;11.648;2023-09-08T01:47:53;12.10;;;8.80;;
8466;SDS011;4270;48.148;11.648;2023-09-08T01:50:18;10.60;;;8.10;;
8466;SDS011;4270;48.148;11.648;2023-09-08T01:52:49;12.43;;;8.20;;
8466;SDS011;4270;48.148;11.648;2023-09-08T01:55:14;11.80;;;8.90;;
8466;SDS011;4270;48.148;11.648;2023-09-08T01:57:41;11.40;;;7.60;;
8466;SDS011;4270;48.148;11.648;2023-09-08T02:00:06;14.33;;;8.80;;
8466;SDS011;4270;48.148;11.648;2023-09-08T02:02:32;11.93;;;8.50;;
8466;SDS011;4270;48.148;11.648;2023-09-08T02:04:57;12.43;;;8.40;;
8466;SDS011;4270;48.148;11.648;2023-09-08T02:07:22;10.27;;;7.90;;
8466;SDS011;4270;48.148;11.648;2023-09-08T02:09:48;11.47;;;8.37;;
8466;SDS011;4270;48.148;11.648;2023-09-08T02:12:13;10.00;;;7.87;;
8466;SDS011;4270;48.148;11.648;2023-09-08T02:14:38;13.90;;;8.70;;
8466;SDS011;4270;48.148;11.648;2023-09-08T02:17:03;13.37;;;8.90;;
8466;SDS011;4270;48.148;11.648;2023-09-08T02:19:29;17.13;;;8.60;;
8466;SDS011;4270;48.148;11.648;2023-09-08T02:21:54;12.63;;;8.93;;
8466;SDS011;4270;48.148;11.648;2023-09-08T02:24:19;14.30;;;9.47;;
8466;SDS011;4270;48.148;11.648;2023-09-08T02:26:45;12.40;;;9.30;;
8466;SDS011;4270;48.148;11.648;2023-09-08T02:29:13;10.23;;;8.70;;
8466;SDS011;4270;48.148;11.648;2023-09-08T02:31:39;15.03;;;8.43;;
8466;SDS011;4270;48.148;11.648;2023-09-08T02:34:04;10.70;;;8.90;;
8466;SDS011;4270;48.148;11.648;2023-09-08T02:36:30;11.27;;;8.60;;
8466;SDS011;4270;48.148;11.648;2023-09-08T02:38:55;10.93;;;7.70;;
8466;SDS011;4270;48.148;11.648;2023-09-08T02:41:20;11.83;;;8.10;;
8466;SDS011;4270;48.148;11.648;2023-09-08T02:43:46;11.67;;;8.67;;
8466;SDS011;4270;48.148;11.648;2023-09-08T02:46:11;10.23;;;8.03;;
8466;SDS011;4270;48.148;11.648;2023-09-08T02:48:37;10.07;;;8.10;;
8466;SDS011;4270;48.148;11.648;2023-09-08T02:51:02;12.43;;;7.90;;
8466;SDS011;4270;48.148;11.648;2023-09-08T02:53:27;10.90;;;8.13;;
8466;SDS011;4270;48.148;11.648;2023-09-08T02:55:57;12.60;;;8.10;;
8466;SDS011;4270;48.148;11.648;2023-09-08T02:58:22;12.70;;;8.17;;
8466;SDS011;4270;48.148;11.648;2023-09-08T03:00:47;14.50;;;8.03;;
8466;SDS011;4270;48.148;11.648;2023-09-08T03:03:13;12.23;;;8.53;;
8466;SDS011;4270;48.148;11.648;2023-09-08T03:05:38;15.57;;;8.77;;
8466;SDS011;4270;48.148;11.648;2023-09-08T03:08:03;10.03;;;8.63;;
8466;SDS011;4270;48.148;11.648;2023-09-08T03:10:30;9.93;;;8.00;;
8466;SDS011;4270;48.148;11.648;2023-09-08T03:12:58;10.93;;;7.73;;
8466;SDS011;4270;48.148;11.648;2023-09-08T03:15:24;9.60;;;7.83;;
8466;SDS011;4270;48.148;11.648;2023-09-08T03:17:50;13.53;;;8.60;;
8466;SDS011;4270;48.148;11.648;2023-09-08T03:20:16;11.03;;;8.20;;
8466;SDS011;4270;48.148;11.648;2023-09-08T03:22:41;11.37;;;8.67;;
8466;SDS011;4270;48.148;11.648;2023-09-08T03:25:09;13.23;;;8.73;;
8466;SDS011;4270;48.148;11.648;2023-09-08T03:27:34;11.40;;;8.00;;
8466;SDS011;4270;48.148;11.648;2023-09-08T03:30:00;12.90;;;9.37;;
8466;SDS011;4270;48.148;11.648;2023-09-08T03:32:25;12.47;;;8.23;;
8466;SDS011;4270;48.148;11.648;2023-09-08T03:34:50;9.93;;;7.97;;
8466;SDS011;4270;48.148;11.648;2023-09-08T03:37:15;10.27;;;8.83;;
8466;SDS011;4270;48.148;11.648;2023-09-08T03:39:41;13.07;;;9.00;;
8466;SDS011;4270;48.148;11.648;2023-09-08T03:42:06;11.40;;;8.60;;
8466;SDS011;4270;48.148;11.648;2023-09-08T03:44:31;11.80;;;8.73;;
8466;SDS011;4270;48.148;11.648;2023-09-08T03:46:56;12.77;;;8.67;;
8466;SDS011;4270;48.148;11.648;2023-09-08T03:49:22;10.00;;;7.70;;
8466;SDS011;4270;48.148;11.648;2023-09-08T03:51:47;12.73;;;8.10;;
8466;SDS011;4270;48.148;11.648;2023-09-08T03:54:12;10.23;;;8.17;;
8466;SDS011;4270;48.148;11.648;2023-09-08T03:56:37;12.13;;;8.40;;
8466;SDS011;4270;48.148;11.648;2023-09-08T03:59:03;14.60;;;8.97;;
8466;SDS011;4270;48.148;11.648;2023-09-08T04:01:28;10.00;;;7.73;;
8466;SDS011;4270;48.148;11.648;2023-09-08T04:03:53;12.10;;;8.63;;
8466;SDS011;4270;48.148;11.648;2023-09-08T04:06:18;15.13;;;9.53;;
8466;SDS011;4270;48.148;11.648;2023-09-08T04:08:44;11.50;;;8.50;;
8466;SDS011;4270;48.148;11.648;2023-09-08T04:11:09;9.33;;;8.33;;
8466;SDS011;4270;48.148;11.648;2023-09-08T04:13:34;11.10;;;8.50;;
8466;SDS011;4270;48.148;11.648;2023-09-08T04:15:59;12.53;;;8.70;;
8466;SDS011;4270;48.148;11.648;2023-09-08T04:18:25;10.33;;;8.13;;
8466;SDS011;4270;48.148;11.648;2023-09-08T04:20:50;10.20;;;7.90;;
8466;SDS011;4270;48.148;11.648;2023-09-08T04:23:15;10.40;;;8.40;;
8466;SDS011;4270;48.148;11.648;2023-09-08T04:25:40;14.10;;;8.70;;
8466;SDS011;4270;48.148;11.648;2023-09-08T04:28:06;12.60;;;9.20;;
8466;SDS011;4270;48.148;11.648;2023-09-08T04:30:31;11.50;;;8.73;;
8466;SDS011;4270;48.148;11.648;2023-09-08T04:32:56;15.57;;;9.10;;
8466;SDS011;4270;48.148;11.648;2023-09-08T04:35:21;11.00;;;8.30;;
8466;SDS011;4270;48.148;11.648;2023-09-08T04:37:46;10.67;;;8.50;;
8466;SDS011;4270;48.148;11.648;2023-09-08T04:40:12;10.57;;;8.40;;
8466;SDS011;4270;48.148;11.648;2023-09-08T04:42:37;10.10;;;8.13;;
8466;SDS011;4270;48.148;11.648;2023-09-08T04:45:02;14.83;;;8.50;;
8466;SDS011;4270;48.148;11.648;2023-09-08T04:47:28;10.87;;;8.30;;
8466;SDS011;4270;48.148;11.648;2023-09-08T04:49:53;18.10;;;8.60;;
8466;SDS011;4270;48.148;11.648;2023-09-08T04:52:18;11.80;;;7.90;;
8466;SDS011;4270;48.148;11.648;2023-09-08T04:54:43;13.77;;;9.20;;
8466;SDS011;4270;48.148;11.648;2023-09-08T04:57:08;14.00;;;8.60;;
8466;SDS011;4270;48.148;11.648;2023-09-08T04:59:34;9.87;;;8.10;;
8466;SDS011;4270;48.148;11.648;2023-09-08T05:02:01;11.90;;;8.60;;
8466;SDS011;4270;48.148;11.648;2023-09-08T05:04:27;10.10;;;8.40;;
8466;SDS011;4270;48.148;11.648;2023-09-08T05:06:52;13.90;;;8.57;;
8466;SDS011;4270;48.148;11.648;2023-09-08T05:09:17;10.70;;;8.67;;
8466;SDS011;4270;48.148;11.648;2023-09-08T05:11:42;15.93;;;9.13;;
8466;SDS011;4270;48.148;11.648;2023-09-08T05:14:08;13.80;;;9.23;;
8466;SDS011;4270;48.148;11.648;2023-09-08T05:16:34;9.97;;;8.07;;
8466;SDS011;4270;48.148;11.648;2023-09-08T05:19:04;9.83;;;8.10;;
8466;SDS011;4270;48.148;11.648;2023-09-08T05:21:30;12.70;;;8.17;;
8466;SDS011;4270;48.148;11.648;2023-09-08T05:23:55;11.63;;;8.13;;
8466;SDS011;4270;48.148;11.648;2023-09-08T05:26:21;14.63;;;8.40;;
8466;SDS011;4270;48.148;11.648;2023-09-08T05:28:46;11.50;;;7.90;;
8466;SDS011;4270;48.148;11.648;2023-09-08T05:31:12;14.10;;;9.13;;
8466;SDS011;4270;48.148;11.648;2023-09-08T05:33:37;11.50;;;8.40;;
8466;SDS011;4270;48.148;11.648;2023-09-08T05:36:02;12.77;;;8.63;;
8466;SDS011;4270;48.148;11.648;2023-09-08T05:38:27;13.70;;;8.50;;
8466;SDS011;4270;48.148;11.648;2023-09-08T05:40:53;10.70;;;8.57;;
8466;SDS011;4270;48.148;11.648;2023-09-08T05:43:19;12.33;;;8.10;;
8466;SDS011;4270;48.148;11.648;2023-09-08T05:45:44;9.40;;;8.13;;
8466;SDS011;4270;48.148;11.648;2023-09-08T05:48:09;11.47;;;8.90;;
8466;SDS011;4270;48.148;11.648;2023-09-08T05:50:34;11.37;;;8.60;;
8466;SDS011;4270;48.148;11.648;2023-09-08T05:52:59;12.93;;;10.20;;
8466;SDS011;4270;48.148;11.648;2023-09-08T05:55:25;10.57;;;8.50;;
8466;SDS011;4270;48.148;11.648;2023-09-08T05:57:50;9.73;;;8.33;;
8466;SDS011;4270;48.148;11.648;2023-09-08T06:00:15;9.33;;;8.00;;
8466;SDS011;4270;48.148;11.648;2023-09-08T06:02:41;12.37;;;9.00;;
8466;SDS011;4270;48.148;11.648;2023-09-08T06:05:06;10.33;;;8.57;;
8466;SDS011;4270;48.148;11.648;2023-09-08T06:07:31;11.30;;;8.67;;
8466;SDS011;4270;48.148;11.648;2023-09-08T06:09:56;10.90;;;9.80;;
8466;SDS011;4270;48.148;11.648;2023-09-08T06:12:22;12.77;;;8.53;;
8466;SDS011;4270;48.148;11.648;2023-09-08T06:14:47;14.87;;;10.00;;
8466;SDS011;4270;48.148;11.648;2023-09-08T06:17:12;13.60;;;9.47;;
8466;SDS011;4270;48.148;11.648;2023-09-08T06:19:47;11.40;;;9.37;;
8466;SDS011;4270;48.148;11.648;2023-09-08T06:22:12;13.47;;;9.67;;
8466;SDS011;4270;48.148;11.648;2023-09-08T06:24:37;13.13;;;9.40;;
8466;SDS011;4270;48.148;11.648;2023-09-08T06:27:03;11.97;;;10.60;;
8466;SDS011;4270;48.148;11.648;2023-09-08T06:29:28;14.10;;;9.13;;
8466;SDS011;4270;48.148;11.648;2023-09-08T06:31:53;10.90;;;9.70;;
8466;SDS011;4270;48.148;11.648;2023-09-08T06:34:19;14.67;;;10.60;;
8466;SDS011;4270;48.148;11.648;2023-09-08T06:36:47;13.37;;;10.40;;
8466;SDS011;4270;48.148;11.648;2023-09-08T06:39:12;12.30;;;9.83;;
8466;SDS011;4270;48.148;11.648;2023-09-08T06:41:37;12.60;;;9.90;;
8466;SDS011;4270;48.148;11.648;2023-09-08T06:44:03;13.90;;;9.70;;
8466;SDS011;4270;48.148;11.648;2023-09-08T06:46:28;12.47;;;10.30;;
8466;SDS011;4270;48.148;11.648;2023-09-08T06:48:53;11.23;;;10.00;;
8466;SDS011;4270;48.148;11.648;2023-09-08T06:51:18;11.10;;;8.90;;
8466;SDS011;4270;48.148;11.648;2023-09-08T06:53:44;13.10;;;10.30;;
8466;SDS011;4270;48.148;11.648;2023-09-08T06:56:09;14.00;;;10.90;;
8466;SDS011;4270;48.148;11.648;2023-09-08T06:58:34;15.73;;;10.17;;
8466;SDS011;4270;48.148;11.648;2023-09-08T07:00:59;12.73;;;11.20;;
8466;SDS011;4270;48.148;11.648;2023-09-08T07:03:25;14.30;;;9.30;;
8466;SDS011;4270;48.148;11.648;2023-09-08T07:05:51;13.53;;;10.23;;
8466;SDS011;4270;48.148;11.648;2023-09-08T07:08:17;11.57;;;10.03;;
8466;SDS011;4270;48.148;11.648;2023-09-08T07:10:43;11.83;;;9.50;;
8466;SDS011;4270;48.148;11.648;2023-09-08T07:13:08;13.90;;;10.97;;
8466;SDS011;4270;48.148;11.648;2023-09-08T07:15:33;17.63;;;10.50;;
8466;SDS011;4270;48.148;11.648;2023-09-08T07:17:59;12.00;;;10.30;;
8466;SDS011;4270;48.148;11.648;2023-09-08T07:20:24;12.47;;;9.90;;
8466;SDS011;4270;48.148;11.648;2023-09-08T07:22:49;11.37;;;9.23;;
8466;SDS011;4270;48.148;11.648;2023-09-08T07:25:14;13.43;;;10.27;;
8466;SDS011;4270;48.148;11.648;2023-09-08T07:27:40;11.90;;;10.63;;
8466;SDS011;4270;48.148;11.648;2023-09-08T07:30:05;17.40;;;11.60;;
8466;SDS011;4270;48.148;11.648;2023-09-08T07:32:30;12.90;;;10.87;;
8466;SDS011;4270;48.148;11.648;2023-09-08T07:34:56;11.60;;;10.40;;
8466;SDS011;4270;48.148;11.648;2023-09-08T07:37:21;14.07;;;11.03;;
8466;SDS011;4270;48.148;11.648;2023-09-08T07:39:47;12.40;;;11.10;;
8466;SDS011;4270;48.148;11.648;2023-09-08T07:42:12;12.70;;;11.50;;
8466;SDS011;4270;48.148;11.648;2023-09-08T07:44:38;12.70;;;9.67;;
8466;SDS011;4270;48.148;11.648;2023-09-08T07:47:03;12.20;;;11.00;;
8466;SDS011;4270;48.148;11.648;2023-09-08T07:49:28;12.93;;;10.40;;
8466;SDS011;4270;48.148;11.648;2023-09-08T07:51:53;12.00;;;10.20;;
8466;SDS011;4270;48.148;11.648;2023-09-08T07:54:19;11.23;;;10.07;;
8466;SDS011;4270;48.148;11.648;2023-09-08T07:56:44;10.90;;;9.60;;
8466;SDS011;4270;48.148;11.648;2023-09-08T07:59:09;13.07;;;9.33;;
8466;SDS011;4270;48.148;11.648;2023-09-08T08:01:35;13.50;;;10.83;;
8466;SDS011;4270;48.148;11.648;2023-09-08T08:04:00;15.63;;;10.30;;
8466;SDS011;4270;48.148;11.648;2023-09-08T08:06:28;10.70;;;9.70;;
8466;SDS011;4270;48.148;11.648;2023-09-08T08:08:53;13.50;;;10.87;;
8466;SDS011;4270;48.148;11.648;2023-09-08T08:11:21;12.90;;;10.37;;
8466;SDS011;4270;48.148;11.648;2023-09-08T08:13:47;13.60;;;9.93;;
8466;SDS011;4270;48.148;11.648;2023-09-08T08:16:12;13.50;;;10.67;;
8466;SDS011;4270;48.148;11.648;2023-09-08T08:18:37;14.30;;;11.37;;
8466;SDS011;4270;48.148;11.648;2023-09-08T08:21:02;12.03;;;10.17;;
8466;SDS011;4270;48.148;11.648;2023-09-08T08:23:28;11.33;;;9.70;;
8466;SDS011;4270;48.148;11.648;2023-09-08T08:25:54;12.60;;;9.27;;
8466;SDS011;4270;48.148;11.648;2023-09-08T08:28:19;9.70;;;8.70;;
8466;SDS011;4270;48.148;11.648;2023-09-08T08:30:44;10.47;;;9.00;;
8466;SDS011;4270;48.148;11.648;2023-09-08T08:33:11;10.77;;;9.67;;
8466;SDS011;4270;48.148;11.648;2023-09-08T08:35:36;10.87;;;9.87;;
8466;SDS011;4270;48.148;11.648;2023-09-08T08:38:01;11.20;;;10.00;;
8466;SDS011;4270;48.148;11.648;2023-09-08T08:40:26;11.50;;;10.17;;
8466;SDS011;4270;48.148;11.648;2023-09-08T08:42:56;12.90;;;10.80;;
8466;SDS011;4270;48.148;11.648;2023-09-08T08:45:22;11.87;;;10.77;;
8466;SDS011;4270;48.148;11.648;2023-09-08T08:47:48;9.60;;;8.60;;
8466;SDS011;4270;48.148;11.648;2023-09-08T08:50:13;10.00;;;7.43;;
8466;SDS011;4270;48.148;11.648;2023-09-08T08:52:39;11.00;;;8.70;;
8466;SDS011;4270;48.148;11.648;2023-09-08T08:55:08;11.90;;;8.20;;
8466;SDS011;4270;48.148;11.648;2023-09-08T08:57:33;9.00;;;8.07;;
8466;SDS011;4270;48.148;11.648;2023-09-08T08:59:59;8.27;;;7.47;;
8466;SDS011;4270;48.148;11.648;2023-09-08T09:02:25;10.90;;;8.17;;
8466;SDS011;4270;48.148;11.648;2023-09-08T09:04:51;11.37;;;8.30;;
8466;SDS011;4270;48.148;11.648;2023-09-08T09:07:16;9.77;;;8.27;;
8466;SDS011;4270;48.148;11.648;2023-09-08T09:09:43;14.20;;;9.67;;
8466;SDS011;4270;48.148;11.648;2023-09-08T09:12:08;10.03;;;8.97;;
8466;SDS011;4270;48.148;11.648;2023-09-08T09:14:34;10.57;;;9.50;;
8466;SDS011;4270;48.148;11.648;2023-09-08T09:16:59;13.40;;;9.50;;
8466;SDS011;4270;48.148;11.648;2023-09-08T09:19:26;9.60;;;7.73;;
8466;SDS011;4270;48.148;11.648;2023-09-08T09:21:58;9.80;;;8.90;;
8466;SDS011;4270;48.148;11.648;2023-09-08T09:26:59;8.60;;;7.87;;
8466;SDS011;4270;48.148;11.648;2023-09-08T09:29:24;8.73;;;7.80;;
8466;SDS011;4270;48.148;11.648;2023-09-08T09:31:56;9.77;;;8.80;;
8466;SDS011;4270;48.148;11.648;2023-09-08T09:34:22;9.40;;;8.50;;
8466;SDS011;4270;48.148;11.648;2023-09-08T09:36:48;12.23;;;7.90;;
8466;SDS011;4270;48.148;11.648;2023-09-08T09:39:18;7.87;;;6.90;;
8466;SDS011;4270;48.148;11.648;2023-09-08T09:41:44;10.23;;;8.30;;
8466;SDS011;4270;48.148;11.648;2023-09-08T09:44:10;8.17;;;7.33;;
8466;SDS011;4270;48.148;11.648;2023-09-08T09:46:35;10.00;;;8.47;;
8466;SDS011;4270;48.148;11.648;2023-09-08T09:49:01;8.77;;;7.97;;
8466;SDS011;4270;48.148;11.648;2023-09-08T09:51:26;9.07;;;8.13;;
8466;SDS011;4270;48.148;11.648;2023-09-08T09:53:51;10.00;;;8.60;;
8466;SDS011;4270;48.148;11.648;2023-09-08T09:56:17;7.70;;;6.90;;
8466;SDS011;4270;48.148;11.648;2023-09-08T09:58:42;10.67;;;9.07;;
8466;SDS011;4270;48.148;11.648;2023-09-08T10:01:08;8.67;;;7.90;;
8466;SDS011;4270;48.148;11.648;2023-09-08T10:03:36;9.07;;;7.87;;
8466;SDS011;4270;48.148;11.648;2023-09-08T10:06:02;9.47;;;7.83;;
8466;SDS011;4270;48.148;11.648;2023-09-08T10:08:28;12.30;;;8.40;;
8466;SDS011;4270;48.148;11.648;2023-09-08T10:10:53;12.43;;;8.80;;
8466;SDS011;4270;48.148;11.648;2023-09-08T10:13:26;8.23;;;7.43;;
8466;SDS011;4270;48.148;11.648;2023-09-08T10:15:54;10.07;;;9.00;;
8466;SDS011;4270;48.148;11.648;2023-09-08T10:18:21;8.23;;;7.53;;
8466;SDS011;4270;48.148;11.648;2023-09-08T10:20:47;9.47;;;8.57;;
8466;SDS011;4270;48.148;11.648;2023-09-08T10:23:15;8.70;;;7.80;;
8466;SDS011;4270;48.148;11.648;2023-09-08T10:25:46;10.50;;;8.50;;
8466;SDS011;4270;48.148;11.648;2023-09-08T10:28:18;7.93;;;7.20;;
8466;SDS011;4270;48.148;11.648;2023-09-08T10:30:43;8.33;;;7.53;;
8466;SDS011;4270;48.148;11.648;2023-09-08T10:33:09;9.43;;;8.37;;
8466;SDS011;4270;48.148;11.648;2023-09-08T10:35:35;8.27;;;7.50;;
8466;SDS011;4270;48.148;11.648;2023-09-08T10:38:43;9.17;;;7.50;;
8466;SDS011;4270;48.148;11.648;2023-09-08T10:40:49;8.67;;;7.87;;
8466;SDS011;4270;48.148;11.648;2023-09-08T10:43:14;8.70;;;7.00;;
8466;SDS011;4270;48.148;11.648;2023-09-08T10:45:40;8.47;;;7.53;;
8466;SDS011;4270;48.148;11.648;2023-09-08T10:48:06;10.07;;;7.40;;
8466;SDS011;4270;48.148;11.648;2023-09-08T10:50:35;11.20;;;7.80;;
8466;SDS011;4270;48.148;11.648;2023-09-08T10:53:04;8.53;;;7.77;;
8466;SDS011;4270;48.148;11.648;2023-09-08T10:56:02;9.20;;;8.00;;
8466;SDS011;4270;48.148;11.648;2023-09-08T10:58:29;8.20;;;7.40;;
8466;SDS011;4270;48.148;11.648;2023-09-08T11:00:56;8.70;;;7.80;;
8466;SDS011;4270;48.148;11.648;2023-09-08T11:03:42;8.27;;;7.43;;
8466;SDS011;4270;48.148;11.648;2023-09-08T11:06:08;7.77;;;7.07;;
8466;SDS011;4270;48.148;11.648;2023-09-08T11:08:33;9.03;;;8.13;;
8466;SDS011;4270;48.148;11.648;2023-09-08T11:11:00;8.40;;;7.50;;
8466;SDS011;4270;48.148;11.648;2023-09-08T11:13:26;8.43;;;7.60;;
8466;SDS011;4270;48.148;11.648;2023-09-08T11:15:55;9.30;;;7.47;;
8466;SDS011;4270;48.148;11.648;2023-09-08T11:18:29;8.63;;;7.70;;
8466;SDS011;4270;48.148;11.648;2023-09-08T11:20:55;9.07;;;8.17;;
8466;SDS011;4270;48.148;11.648;2023-09-08T11:23:21;8.23;;;7.43;;
8466;SDS011;4270;48.148;11.648;2023-09-08T11:25:47;8.63;;;7.70;;
8466;SDS011;4270;48.148;11.648;2023-09-08T11:28:12;7.80;;;7.10;;
8466;SDS011;4270;48.148;11.648;2023-09-08T11:30:38;10.33;;;8.50;;
8466;SDS011;4270;48.148;11.648;2023-09-08T11:33:04;9.80;;;7.17;;
8466;SDS011;4270;48.148;11.648;2023-09-08T11:35:31;8.43;;;7.63;;
8466;SDS011;4270;48.148;11.648;2023-09-08T11:38:00;9.53;;;8.63;;
8466;SDS011;4270;48.148;11.648;2023-09-08T11:43:24;10.83;;;7.20;;
8466;SDS011;4270;48.148;11.648;2023-09-08T11:45:50;7.97;;;7.17;;
8466;SDS011;4270;48.148;11.648;2023-09-08T11:48:16;9.73;;;8.03;;
8466;SDS011;4270;48.148;11.648;2023-09-08T11:50:41;8.03;;;7.33;;
8466;SDS011;4270;48.148;11.648;2023-09-08T11:53:07;10.57;;;7.60;;
8466;SDS011;4270;48.148;11.648;2023-09-08T11:55:32;8.30;;;7.53;;
8466;SDS011;4270;48.148;11.648;2023-09-08T11:57:57;8.90;;;7.33;;
8466;SDS011;4270;48.148;11.648;2023-09-08T12:00:23;8.03;;;7.00;;
8466;SDS011;4270;48.148;11.648;2023-09-08T12:02:48;8.50;;;7.60;;
8466;SDS011;4270;48.148;11.648;2023-09-08T12:05:27;8.10;;;7.20;;
8466;SDS011;4270;48.148;11.648;2023-09-08T12:07:53;12.03;;;7.73;;
8466;SDS011;4270;48.148;11.648;2023-09-08T12:10:18;8.83;;;7.93;;
8466;SDS011;4270;48.148;11.648;2023-09-08T12:12:48;9.33;;;7.93;;
8466;SDS011;4270;48.148;11.648;2023-09-08T12:15:29;9.43;;;7.37;;
8466;SDS011;4270;48.148;11.648;2023-09-08T12:17:57;8.47;;;6.80;;
8466;SDS011;4270;48.148;11.648;2023-09-08T12:20:22;8.43;;;7.10;;
8466;SDS011;4270;48.148;11.648;2023-09-08T12:22:48;8.03;;;7.23;;
8466;SDS011;4270;48.148;11.648;2023-09-08T12:25:15;7.70;;;6.87;;
8466;SDS011;4270;48.148;11.648;2023-09-08T12:27:40;7.60;;;6.80;;
8466;SDS011;4270;48.148;11.648;2023-09-08T12:30:05;8.07;;;7.33;;
8466;SDS011;4270;48.148;11.648;2023-09-08T12:32:31;8.37;;;7.30;;
8466;SDS011;4270;48.148;11.648;2023-09-08T12:34:57;7.90;;;7.10;;
8466;SDS011;4270;48.148;11.648;2023-09-08T12:37:23;8.27;;;7.47;;
8466;SDS011;4270;48.148;11.648;2023-09-08T12:39:49;7.80;;;7.10;;
8466;SDS011;4270;48.148;11.648;2023-09-08T12:42:14;8.10;;;7.40;;
8466;SDS011;4270;48.148;11.648;2023-09-08T12:44:40;8.50;;;7.60;;
8466;SDS011;4270;48.148;11.648;2023-09-08T12:47:06;8.17;;;7.37;;
8466;SDS011;4270;48.148;11.648;2023-09-08T12:49:31;8.27;;;7.47;;
8466;SDS011;4270;48.148;11.648;2023-09-08T12:51:56;8.93;;;7.57;;
8466;SDS011;4270;48.148;11.648;2023-09-08T12:54:21;8.00;;;6.47;;
8466;SDS011;4270;48.148;11.648;2023-09-08T12:56:46;8.17;;;7.20;;
8466;SDS011;4270;48.148;11.648;2023-09-08T12:59:12;7.20;;;6.60;;
8466;SDS011;4270;48.148;11.648;2023-09-08T13:01:37;8.13;;;7.43;;
8466;SDS011;4270;48.148;11.648;2023-09-08T13:04:03;7.63;;;6.93;;
8466;SDS011;4270;48.148;11.648;2023-09-08T13:06:28;8.10;;;7.40;;
8466;SDS011;4270;48.148;11.648;2023-09-08T13:08:53;9.10;;;7.73;;
8466;SDS011;4270;48.148;11.648;2023-09-08T13:11:18;8.20;;;7.50;;
8466;SDS011;4270;48.148;11.648;2023-09-08T13:13:44;8.70;;;7.33;;
8466;SDS011;4270;48.148;11.648;2023-09-08T13:16:09;9.40;;;7.13;;
8466;SDS011;4270;48.148;11.648;2023-09-08T13:18:34;8.17;;;6.90;;
8466;SDS011;4270;48.148;11.648;2023-09-08T13:21:03;8.00;;;7.27;;
8466;SDS011;4270;48.148;11.648;2023-09-08T13:23:28;8.80;;;7.50;;
8466;SDS011;4270;48.148;11.648;2023-09-08T13:25:53;8.53;;;7.70;;
8466;SDS011;4270;48.148;11.648;2023-09-08T13:28:19;7.77;;;6.73;;
8466;SDS011;4270;48.148;11.648;2023-09-08T13:30:44;7.27;;;6.47;;
8466;SDS011;4270;48.148;11.648;2023-09-08T13:33:10;7.57;;;6.70;;
8466;SDS011;4270;48.148;11.648;2023-09-08T13:35:36;8.30;;;7.43;;
8466;SDS011;4270;48.148;11.648;2023-09-08T13:38:03;7.13;;;6.43;;
8466;SDS011;4270;48.148;11.648;2023-09-08T13:40:28;9.77;;;6.20;;
8466;SDS011;4270;48.148;11.648;2023-09-08T13:42:54;6.90;;;6.30;;
8466;SDS011;4270;48.148;11.648;2023-09-08T13:45:19;7.33;;;6.47;;
8466;SDS011;4270;48.148;11.648;2023-09-08T13:47:44;8.67;;;7.10;;
8466;SDS011;4270;48.148;11.648;2023-09-08T13:50:09;11.93;;;8.10;;
8466;SDS011;4270;48.148;11.648;2023-09-08T13:52:35;8.80;;;7.40;;
8466;SDS011;4270;48.148;11.648;2023-09-08T13:55:00;8.50;;;7.70;;
8466;SDS011;4270;48.148;11.648;2023-09-08T13:57:25;7.53;;;6.73;;
8466;SDS011;4270;48.148;11.648;2023-09-08T13:59:51;7.93;;;6.70;;
8466;SDS011;4270;48.148;11.648;2023-09-08T14:02:17;7.73;;;7.03;;
8466;SDS011;4270;48.148;11.648;2023-09-08T14:04:43;7.50;;;6.80;;
8466;SDS011;4270;48.148;11.648;2023-09-08T14:07:08;7.87;;;7.17;;
8466;SDS011;4270;48.148;11.648;2023-09-08T14:09:33;7.50;;;6.57;;
8466;SDS011;4270;48.148;11.648;2023-09-08T14:11:59;7.60;;;6.40;;
8466;SDS011;4270;48.148;11.648;2023-09-08T14:14:24;7.80;;;6.70;;
8466;SDS011;4270;48.148;11.648;2023-09-08T14:16:49;9.60;;;7.33;;
8466;SDS011;4270;48.148;11.648;2023-09-08T14:19:14;7.10;;;6.40;;
8466;SDS011;4270;48.148;11.648;2023-09-08T14:21:40;8.70;;;6.73;;
8466;SDS011;4270;48.148;11.648;2023-09-08T14:24:05;7.40;;;6.67;;
8466;SDS011;4270;48.148;11.648;2023-09-08T14:26:30;7.70;;;6.90;;
8466;SDS011;4270;48.148;11.648;2023-09-08T14:28:56;7.60;;;6.70;;
8466;SDS011;4270;48.148;11.648;2023-09-08T14:31:21;6.97;;;6.27;;
8466;SDS011;4270;48.148;11.648;2023-09-08T14:33:46;7.67;;;6.97;;
8466;SDS011;4270;48.148;11.648;2023-09-08T14:36:16;8.03;;;6.57;;
8466;SDS011;4270;48.148;11.648;2023-09-08T14:38:41;7.57;;;6.80;;
8466;SDS011;4270;48.148;11.648;2023-09-08T14:41:06;8.30;;;7.10;;
8466;SDS011;4270;48.148;11.648;2023-09-08T14:43:31;7.93;;;6.60;;
8466;SDS011;4270;48.148;11.648;2023-09-08T14:45:57;7.87;;;7.13;;
8466;SDS011;4270;48.148;11.648;2023-09-08T14:48:22;7.40;;;6.70;;
8466;SDS011;4270;48.148;11.648;2023-09-08T14:50:48;8.13;;;7.30;;